aviador You're here:

KBKE Decoded Metar

BAKER in OR, USA
Report Time2018-05-26 07:53:00
UTC Time2018-05-26 08:06:19
Flight Rules vfr VFR
Wind290° at 04 kt
W.Decomp.*RWY 26: 3.9 kt HW 1.0 kt RCW
RWY 31: 3.2 kt HW 2.4 kt LCW
RWY 35: 1.0 kt HW 3.9 kt LCW
W.Rank290° ranks 6
Current wind is below 290° avg. (6.8)
Visibility9999 m
Phenomena:N/A
Clouds:N/A
Expected CloudBase > 800 ft AGL from Temp-Dew spread
CeilingNone
Temp13°C (ISA +5)
Dew Point11°C (88% RH)
AAT11.9°C
QNH1012 hPa
Density Alt4,134 ft
Elevation3,360 ft
Report Wrong Elevation
Raw Report
KBKE 260753Z AUTO 29004KT 10SM CLR 13/11 A2989 RMK AO2 SLP101
T01280106 402720083 $=

Extra information for KBKE:More info

Metar Taf Metar & Taf Last 4 Metars F.Rules Stats Wind Profile Meteogram Temp Stats Airport Information Weather charts Add Link Nearby VenuesMetar ALERT Operation Metar Decoded Social comments

AIRNAV info for KBKE